createdAt,value
2017-07-20T00:01:35.489Z,17.17
2017-07-20T00:04:02.883Z,17.50
2017-07-20T00:06:30.290Z,19.40
2017-07-20T00:08:57.678Z,16.27
2017-07-20T00:11:25.089Z,16.13
2017-07-20T00:13:52.474Z,21.00
2017-07-20T00:16:19.879Z,25.33
2017-07-20T00:18:47.275Z,28.73
2017-07-20T00:21:14.683Z,18.67
2017-07-20T00:23:42.079Z,20.93
2017-07-20T00:26:09.483Z,29.60
2017-07-20T00:28:36.883Z,15.67
2017-07-20T00:31:04.278Z,26.57
2017-07-20T00:33:31.685Z,29.50
2017-07-20T00:35:59.074Z,27.80
2017-07-20T00:38:26.475Z,25.10
2017-07-20T00:40:53.914Z,31.63
2017-07-20T00:43:21.287Z,24.60
2017-07-20T00:45:48.687Z,18.63
2017-07-20T00:48:16.078Z,20.33
2017-07-20T00:50:43.479Z,23.77
2017-07-20T00:53:10.875Z,25.03
2017-07-20T00:55:38.277Z,24.03
2017-07-20T00:58:05.670Z,25.23
2017-07-20T01:00:33.294Z,23.53
2017-07-20T01:03:00.682Z,26.93
2017-07-20T01:05:28.078Z,24.50
2017-07-20T01:07:55.479Z,25.67
2017-07-20T01:10:22.879Z,25.80
2017-07-20T01:12:50.276Z,18.77
2017-07-20T01:15:17.679Z,19.83
2017-07-20T01:17:45.087Z,19.27
2017-07-20T01:20:12.488Z,26.50
2017-07-20T01:22:39.895Z,21.10
2017-07-20T01:25:07.282Z,22.57
2017-07-20T01:27:34.683Z,21.70
2017-07-20T01:30:02.375Z,21.00
2017-07-20T01:32:29.775Z,24.27
2017-07-20T01:34:57.171Z,24.00
2017-07-20T01:37:24.571Z,19.30
2017-07-20T01:39:51.977Z,22.60
2017-07-20T01:42:19.370Z,23.40
2017-07-20T01:44:46.763Z,28.63
2017-07-20T01:47:14.194Z,19.13
2017-07-20T01:49:41.594Z,22.30
2017-07-20T01:52:08.996Z,27.37
2017-07-20T01:54:36.403Z,22.00
2017-07-20T01:57:03.800Z,18.00
2017-07-20T01:59:31.195Z,19.23
2017-07-20T02:01:58.587Z,19.60
2017-07-20T02:04:25.986Z,19.93
2017-07-20T02:06:53.390Z,28.43
2017-07-20T02:09:21.007Z,21.10
2017-07-20T02:11:48.411Z,16.30
2017-07-20T02:14:15.807Z,19.70
2017-07-20T02:16:43.215Z,14.53
2017-07-20T02:19:10.616Z,22.70
2017-07-20T02:21:38.017Z,21.27
2017-07-20T02:24:05.410Z,22.70
2017-07-20T02:26:32.817Z,18.87
2017-07-20T02:29:00.418Z,18.50
2017-07-20T02:31:27.819Z,18.17
2017-07-20T02:33:55.220Z,21.50
2017-07-20T02:36:22.607Z,23.40
2017-07-20T02:38:50.010Z,20.97
2017-07-20T02:41:17.408Z,18.77
2017-07-20T02:43:44.815Z,17.73
2017-07-20T02:46:12.198Z,22.67
2017-07-20T02:48:39.608Z,18.97
2017-07-20T02:51:07.007Z,23.33
2017-07-20T02:53:34.402Z,28.00
2017-07-20T02:56:01.801Z,22.50
2017-07-20T02:58:29.203Z,21.73
2017-07-20T03:00:56.600Z,15.70
2017-07-20T03:03:23.995Z,20.00
2017-07-20T03:05:51.395Z,21.60
2017-07-20T03:08:18.787Z,18.30
2017-07-20T03:10:46.187Z,21.73
2017-07-20T03:13:13.586Z,19.83
2017-07-20T03:15:40.985Z,18.33
2017-07-20T03:18:08.393Z,20.67
2017-07-20T03:20:35.778Z,22.70
2017-07-20T03:23:03.431Z,18.97
2017-07-20T03:25:30.818Z,23.10
2017-07-20T03:27:58.231Z,23.83
2017-07-20T03:30:25.902Z,23.67
2017-07-20T03:32:53.323Z,23.30
2017-07-20T03:35:20.715Z,25.43
2017-07-20T03:37:48.116Z,31.13
2017-07-20T03:40:15.520Z,24.63
2017-07-20T03:42:42.912Z,21.27
2017-07-20T03:45:10.312Z,35.73
2017-07-20T03:47:37.711Z,38.53
2017-07-20T03:50:05.119Z,30.87
2017-07-20T03:52:32.514Z,35.53
2017-07-20T03:54:59.919Z,31.70
2017-07-20T03:57:27.616Z,37.43
2017-07-20T03:59:55.023Z,36.83
2017-07-20T04:02:22.416Z,39.37
2017-07-20T04:04:49.823Z,32.27
2017-07-20T04:07:17.219Z,33.93
2017-07-20T04:09:44.625Z,32.90
2017-07-20T04:12:12.019Z,33.63
2017-07-20T04:14:39.419Z,30.40
2017-07-20T04:17:06.818Z,33.20
2017-07-20T04:19:34.239Z,36.53
2017-07-20T04:22:01.631Z,26.13
2017-07-20T04:24:29.046Z,28.10
2017-07-20T04:26:56.439Z,31.53
2017-07-20T04:29:24.013Z,34.47
2017-07-20T04:31:51.623Z,31.33
2017-07-20T04:34:19.027Z,36.63
2017-07-20T04:36:46.428Z,32.23
2017-07-20T04:39:13.832Z,29.50
2017-07-20T04:41:41.235Z,31.20
2017-07-20T04:44:08.636Z,28.40
2017-07-20T04:46:36.035Z,35.70
2017-07-20T04:49:03.452Z,27.77
2017-07-20T04:51:30.852Z,28.63
2017-07-20T04:53:58.250Z,27.43
2017-07-20T04:56:25.662Z,28.87
2017-07-20T04:58:53.058Z,32.87
2017-07-20T05:01:20.492Z,23.20
2017-07-20T05:03:47.906Z,24.10
2017-07-20T05:06:15.328Z,33.50
2017-07-20T05:08:42.835Z,28.47
2017-07-20T05:11:10.232Z,34.30
2017-07-20T05:13:37.623Z,23.60
2017-07-20T05:16:05.027Z,27.23
2017-07-20T05:18:32.422Z,26.50
2017-07-20T05:20:59.892Z,30.47
2017-07-20T05:23:27.292Z,28.20
2017-07-20T05:25:54.691Z,26.00
2017-07-20T05:28:22.082Z,27.87
2017-07-20T05:30:49.526Z,20.27
2017-07-20T05:33:16.939Z,34.20
2017-07-20T05:35:44.354Z,27.63
2017-07-20T05:38:11.784Z,24.20
2017-07-20T05:40:39.207Z,24.33
2017-07-20T05:43:06.626Z,33.03
2017-07-20T05:45:34.030Z,30.27
2017-07-20T05:48:01.459Z,29.60
2017-07-20T05:50:28.875Z,34.17
2017-07-20T05:52:56.272Z,44.77
2017-07-20T05:55:23.692Z,33.73
2017-07-20T05:57:51.082Z,30.00
2017-07-20T06:00:18.493Z,27.73
2017-07-20T06:02:45.964Z,33.03
2017-07-20T06:05:13.447Z,21.30
2017-07-20T06:07:40.847Z,32.33
2017-07-20T06:10:08.245Z,25.37
2017-07-20T06:12:35.664Z,32.40
2017-07-20T06:15:03.057Z,31.53
2017-07-20T06:17:30.451Z,38.40
2017-07-20T06:19:57.857Z,29.23
2017-07-20T06:22:25.304Z,30.00
2017-07-20T06:24:52.705Z,28.60
2017-07-20T06:27:20.099Z,26.13
2017-07-20T06:29:47.514Z,32.43
2017-07-20T06:32:14.886Z,27.57
2017-07-20T06:34:42.314Z,31.43
2017-07-20T06:37:10.332Z,32.50
2017-07-20T06:39:37.875Z,34.60
2017-07-20T06:42:05.495Z,32.73
2017-07-20T06:44:33.734Z,48.73
2017-07-20T06:47:01.270Z,26.77
2017-07-20T06:49:30.587Z,29.83
2017-07-20T06:51:58.067Z,20.80
2017-07-20T06:54:25.468Z,28.10
2017-07-20T06:56:53.009Z,30.27
2017-07-20T06:59:20.400Z,36.27
2017-07-20T07:01:47.927Z,29.37
2017-07-20T07:04:15.351Z,30.40
2017-07-20T07:06:42.994Z,18.90
2017-07-20T07:09:10.400Z,26.47
2017-07-20T07:11:37.790Z,23.07
2017-07-20T07:14:05.197Z,20.63
2017-07-20T07:16:32.591Z,25.00
2017-07-20T07:19:00.015Z,28.83
2017-07-20T07:21:27.414Z,18.70
2017-07-20T07:23:54.812Z,24.23
2017-07-20T07:26:22.210Z,31.83
2017-07-20T07:28:49.603Z,23.17
2017-07-20T07:31:16.997Z,26.50
2017-07-20T07:33:44.398Z,31.33
2017-07-20T07:36:11.803Z,26.70
2017-07-20T07:38:39.205Z,27.10
2017-07-20T07:41:06.611Z,30.10
2017-07-20T07:43:34.014Z,22.63
2017-07-20T07:46:01.426Z,30.73
2017-07-20T07:48:28.827Z,28.70
2017-07-20T07:50:56.237Z,34.50
2017-07-20T07:53:23.667Z,34.10
2017-07-20T07:55:51.083Z,23.20
2017-07-20T07:58:18.498Z,27.30
2017-07-20T08:00:45.879Z,37.17
2017-07-20T08:03:13.299Z,32.10
2017-07-20T08:05:40.704Z,30.73
2017-07-20T08:08:08.103Z,25.63
2017-07-20T08:10:35.500Z,25.30
2017-07-20T08:13:02.907Z,24.60
2017-07-20T08:15:30.323Z,25.33
2017-07-20T08:17:57.719Z,20.43
2017-07-20T08:20:25.359Z,17.10
2017-07-20T08:22:52.758Z,31.73
2017-07-20T08:25:20.155Z,10.00
2017-07-20T08:27:47.571Z,28.40
2017-07-20T08:30:14.966Z,23.40
2017-07-20T08:32:42.359Z,25.43
2017-07-20T08:35:09.766Z,28.20
2017-07-20T08:37:37.159Z,25.97
2017-07-20T08:40:04.571Z,23.70
2017-07-20T08:42:31.950Z,32.93
2017-07-20T08:44:59.351Z,27.90
2017-07-20T08:47:26.746Z,22.67
2017-07-20T08:49:54.164Z,33.90
2017-07-20T08:52:21.566Z,29.17
2017-07-20T08:54:48.966Z,34.50
2017-07-20T08:57:17.692Z,22.60
2017-07-20T08:59:45.087Z,37.97
2017-07-20T09:02:12.641Z,34.43
2017-07-20T09:04:40.385Z,32.10
2017-07-20T09:07:07.802Z,35.37
2017-07-20T09:09:35.218Z,43.20
2017-07-20T09:12:02.607Z,36.63
2017-07-20T09:14:30.003Z,44.67
2017-07-20T09:16:57.406Z,37.50
2017-07-20T09:19:24.800Z,26.70
2017-07-20T09:21:52.208Z,31.33
2017-07-20T09:24:19.603Z,32.97
2017-07-20T09:26:47.018Z,28.20
2017-07-20T09:29:14.418Z,25.10
2017-07-20T09:31:41.823Z,29.67
2017-07-20T09:34:09.218Z,34.83
2017-07-20T09:36:36.622Z,31.93
2017-07-20T09:39:04.275Z,23.83
2017-07-20T09:41:31.703Z,21.43
2017-07-20T09:43:59.094Z,23.90
2017-07-20T09:46:26.503Z,29.23
2017-07-20T09:48:53.996Z,25.73
2017-07-20T09:51:21.479Z,25.63
2017-07-20T09:53:49.085Z,22.13
2017-07-20T09:56:16.559Z,22.30
2017-07-20T09:58:43.967Z,22.43
2017-07-20T10:01:11.379Z,18.30
2017-07-20T10:03:38.787Z,32.23
2017-07-20T10:06:06.188Z,25.40
2017-07-20T10:08:33.591Z,37.63
2017-07-20T10:11:00.988Z,22.17
2017-07-20T10:13:28.406Z,27.10
2017-07-20T10:15:55.808Z,25.87
2017-07-20T10:18:23.212Z,20.30
2017-07-20T10:20:50.618Z,23.03
2017-07-20T10:23:18.289Z,18.67
2017-07-20T10:25:45.690Z,22.93
2017-07-20T10:28:13.090Z,31.00
2017-07-20T10:30:40.490Z,27.30
2017-07-20T10:33:07.893Z,32.23
2017-07-20T10:35:35.300Z,34.30
2017-07-20T10:38:02.695Z,27.10
2017-07-20T10:40:30.095Z,27.00
2017-07-20T10:42:57.497Z,23.90
2017-07-20T10:45:24.891Z,22.23
2017-07-20T10:47:52.294Z,23.57
2017-07-20T10:50:19.691Z,26.40
2017-07-20T10:52:47.103Z,27.60
2017-07-20T10:55:14.514Z,22.20
2017-07-20T10:57:41.923Z,21.33
2017-07-20T11:00:09.314Z,25.23
2017-07-20T11:02:36.724Z,22.63
2017-07-20T11:05:04.125Z,20.60
2017-07-20T11:07:31.525Z,27.17
2017-07-20T11:09:58.926Z,32.23
2017-07-20T11:12:26.323Z,22.03
2017-07-20T11:14:53.732Z,17.80
2017-07-20T11:17:21.122Z,19.93
2017-07-20T11:19:48.535Z,23.27
2017-07-20T11:22:15.926Z,36.23
2017-07-20T11:24:43.327Z,27.73
2017-07-20T11:27:10.734Z,31.13
2017-07-20T11:29:38.131Z,23.50
2017-07-20T11:32:05.522Z,23.00
2017-07-20T11:34:32.935Z,19.37
2017-07-20T11:37:00.356Z,21.83
2017-07-20T11:39:27.767Z,24.30
2017-07-20T11:41:55.157Z,27.63
2017-07-20T11:44:22.569Z,21.17
2017-07-20T11:46:49.971Z,16.73
2017-07-20T11:49:17.374Z,18.80
2017-07-20T11:51:44.983Z,18.97
2017-07-20T11:54:12.386Z,16.87
2017-07-20T11:56:39.786Z,15.00
2017-07-20T11:59:07.187Z,15.40
2017-07-20T12:01:34.607Z,14.87
2017-07-20T12:04:01.995Z,12.37
2017-07-20T12:06:29.410Z,12.30
2017-07-20T12:08:56.799Z,13.03
2017-07-20T12:11:24.193Z,13.50
2017-07-20T12:13:51.607Z,17.57
2017-07-20T12:16:19.007Z,14.97
2017-07-20T12:18:46.419Z,17.63
2017-07-20T12:21:13.816Z,14.30
2017-07-20T12:23:41.223Z,12.57
2017-07-20T12:26:08.622Z,15.30
2017-07-20T12:28:36.031Z,22.70
2017-07-20T12:31:03.428Z,15.67
2017-07-20T12:33:30.834Z,20.30
2017-07-20T12:35:58.237Z,11.93
2017-07-20T12:38:25.634Z,13.23
2017-07-20T12:40:53.027Z,11.33
2017-07-20T12:43:20.455Z,13.47
2017-07-20T12:45:47.846Z,14.57
2017-07-20T12:48:15.243Z,15.67
2017-07-20T12:50:42.648Z,15.00
2017-07-20T12:53:10.047Z,15.40
2017-07-20T12:55:37.446Z,16.07
2017-07-20T12:58:04.843Z,10.20
2017-07-20T13:00:32.254Z,13.17
2017-07-20T13:02:59.630Z,12.13
2017-07-20T13:05:27.034Z,10.27
2017-07-20T13:07:54.435Z,13.43
2017-07-20T13:10:21.822Z,16.03
2017-07-20T13:12:49.219Z,14.40
2017-07-20T13:15:16.834Z,12.20
2017-07-20T13:17:44.235Z,7.87
2017-07-20T13:20:11.632Z,11.93
2017-07-20T13:22:39.826Z,18.17
2017-07-20T13:25:07.228Z,15.00
2017-07-20T13:27:34.631Z,17.00
2017-07-20T13:30:02.030Z,14.93
2017-07-20T13:32:29.684Z,20.37
2017-07-20T13:34:57.075Z,14.60
2017-07-20T13:37:24.487Z,13.53
2017-07-20T13:39:51.909Z,14.57
2017-07-20T13:42:19.317Z,15.00
2017-07-20T13:44:46.744Z,19.10
2017-07-20T13:47:14.142Z,17.97
2017-07-20T13:49:41.538Z,14.23
2017-07-20T13:52:08.930Z,16.80
2017-07-20T13:54:36.331Z,15.73
2017-07-20T13:57:03.726Z,16.23
2017-07-20T13:59:31.139Z,12.63
2017-07-20T14:01:58.527Z,14.50
2017-07-20T14:04:25.931Z,18.70
2017-07-20T14:06:53.326Z,13.13
2017-07-20T14:09:20.730Z,15.60
2017-07-20T14:11:48.118Z,19.10
2017-07-20T14:14:15.531Z,18.07
2017-07-20T14:16:43.162Z,21.37
2017-07-20T14:19:10.562Z,19.30
2017-07-20T14:21:37.970Z,16.43
2017-07-20T14:24:05.432Z,19.50
2017-07-20T14:26:32.831Z,21.40
2017-07-20T14:29:00.227Z,15.23
2017-07-20T14:31:27.636Z,21.13
2017-07-20T14:33:55.022Z,17.20
2017-07-20T14:36:22.430Z,16.27
2017-07-20T14:38:49.825Z,16.23
2017-07-20T14:41:17.231Z,15.77
2017-07-20T14:43:44.631Z,18.57
2017-07-20T14:46:12.046Z,23.73
2017-07-20T14:48:39.678Z,14.07
2017-07-20T14:51:07.084Z,12.10
2017-07-20T14:53:34.491Z,14.93
2017-07-20T14:56:01.894Z,10.47
2017-07-20T14:58:29.300Z,11.03
2017-07-20T15:00:56.694Z,12.67
2017-07-20T15:03:24.091Z,9.30
2017-07-20T15:05:51.527Z,11.83
2017-07-20T15:08:18.919Z,10.90
2017-07-20T15:10:46.312Z,11.27
2017-07-20T15:13:13.722Z,17.90
2017-07-20T15:15:41.133Z,17.20
2017-07-20T15:18:08.506Z,8.80
2017-07-20T15:20:35.906Z,22.63
2017-07-20T15:23:03.304Z,8.97
2017-07-20T15:25:30.699Z,7.80
2017-07-20T15:27:58.095Z,11.30
2017-07-20T15:30:25.595Z,8.00
2017-07-20T15:32:52.988Z,8.73
2017-07-20T15:35:20.392Z,9.97
2017-07-20T15:37:47.789Z,12.90
2017-07-20T15:40:15.230Z,15.50
2017-07-20T15:42:42.617Z,6.70
2017-07-20T15:45:10.018Z,7.20
2017-07-20T15:47:37.406Z,9.33
2017-07-20T15:50:04.795Z,11.90
2017-07-20T15:52:32.183Z,7.57
2017-07-20T15:54:59.574Z,11.77
2017-07-20T15:57:26.974Z,7.43
2017-07-20T15:59:54.358Z,9.57
2017-07-20T16:02:21.773Z,9.13
2017-07-20T16:04:49.157Z,8.83
2017-07-20T16:07:16.563Z,11.10
2017-07-20T16:09:43.959Z,12.03
2017-07-20T16:12:11.355Z,8.50
2017-07-20T16:14:38.743Z,9.30
2017-07-20T16:17:06.158Z,14.10
2017-07-20T16:19:33.555Z,8.10
2017-07-20T16:22:00.962Z,7.10
2017-07-20T16:24:28.366Z,10.13
2017-07-20T16:26:55.755Z,14.33
2017-07-20T16:29:23.158Z,11.93
2017-07-20T16:31:50.546Z,6.90
2017-07-20T16:34:17.958Z,8.93
2017-07-20T16:36:45.352Z,7.10
2017-07-20T16:39:12.755Z,10.20
2017-07-20T16:41:40.462Z,10.30
2017-07-20T16:44:08.058Z,7.57
2017-07-20T16:46:35.452Z,9.47
2017-07-20T16:49:02.851Z,10.30
2017-07-20T16:51:30.255Z,17.23
2017-07-20T16:53:57.654Z,5.13
2017-07-20T16:56:25.047Z,6.67
2017-07-20T16:58:52.438Z,11.27
2017-07-20T17:01:19.847Z,11.73
2017-07-20T17:03:47.243Z,9.00
2017-07-20T17:06:14.644Z,13.33
2017-07-20T17:08:42.038Z,19.37
2017-07-20T17:11:09.431Z,4.63
2017-07-20T17:13:36.839Z,5.97
2017-07-20T17:16:04.238Z,3.53
2017-07-20T17:18:31.634Z,3.93
2017-07-20T17:20:59.031Z,3.70
2017-07-20T17:23:26.414Z,4.20
2017-07-20T17:25:53.822Z,4.37
2017-07-20T17:28:21.211Z,3.97
2017-07-20T17:30:48.618Z,4.80
2017-07-20T17:33:15.994Z,5.10
2017-07-20T17:35:43.595Z,4.17
2017-07-20T17:38:11.951Z,4.90
2017-07-20T17:40:39.335Z,8.03
2017-07-20T17:43:06.738Z,6.67
2017-07-20T17:45:34.120Z,8.03
2017-07-20T17:48:01.735Z,7.40
2017-07-20T17:50:29.447Z,5.63
2017-07-20T17:52:56.848Z,7.40
2017-07-20T17:55:24.241Z,9.07
2017-07-20T17:57:51.663Z,7.27
2017-07-20T18:00:19.067Z,5.73
2017-07-20T18:02:46.471Z,5.03
2017-07-20T18:05:13.865Z,5.47
2017-07-20T18:07:41.239Z,7.13
2017-07-20T18:10:08.658Z,6.00
2017-07-20T18:12:36.043Z,5.50
2017-07-20T18:15:03.453Z,5.37
2017-07-20T18:17:30.834Z,4.40
2017-07-20T18:19:58.235Z,8.30
2017-07-20T18:22:25.626Z,4.77
2017-07-20T18:24:53.042Z,4.40
2017-07-20T18:27:20.439Z,4.30
2017-07-20T18:29:47.827Z,8.53
2017-07-20T18:32:15.231Z,8.43
2017-07-20T18:34:42.846Z,4.20
2017-07-20T18:37:10.252Z,7.03
2017-07-20T18:39:37.636Z,3.73
2017-07-20T18:42:05.047Z,4.53
2017-07-20T18:44:32.650Z,3.80
2017-07-20T18:47:00.042Z,4.97
2017-07-20T18:49:27.430Z,4.00
2017-07-20T18:51:54.823Z,4.53
2017-07-20T18:54:22.258Z,5.80
2017-07-20T18:56:49.678Z,6.83
2017-07-20T18:59:17.051Z,5.27
2017-07-20T19:01:45.499Z,9.80
2017-07-20T19:04:12.894Z,5.03
2017-07-20T19:06:40.282Z,10.77
2017-07-20T19:09:07.680Z,7.70
2017-07-20T19:11:35.066Z,6.17
2017-07-20T19:14:02.474Z,6.90
2017-07-20T19:16:29.867Z,6.83
2017-07-20T19:18:57.260Z,6.00
2017-07-20T19:21:24.654Z,4.70
2017-07-20T19:23:52.059Z,4.60
2017-07-20T19:26:19.754Z,10.13
2017-07-20T19:28:47.147Z,5.57
2017-07-20T19:31:14.531Z,5.53
2017-07-20T19:33:41.914Z,5.03
2017-07-20T19:36:09.311Z,5.47
2017-07-20T19:38:36.723Z,4.73
2017-07-20T19:41:04.118Z,5.30
2017-07-20T19:43:31.511Z,4.83
2017-07-20T19:45:58.910Z,10.10
2017-07-20T19:48:26.295Z,5.40
2017-07-20T19:50:53.687Z,4.73
2017-07-20T19:53:21.075Z,6.17
2017-07-20T19:55:48.475Z,6.87
2017-07-20T19:58:15.859Z,5.27
2017-07-20T20:00:43.519Z,5.70
2017-07-20T20:03:10.906Z,8.07
2017-07-20T20:05:38.296Z,11.90
2017-07-20T20:08:05.699Z,12.13
2017-07-20T20:10:33.082Z,6.10
2017-07-20T20:13:00.474Z,7.70
2017-07-20T20:15:27.959Z,6.50
2017-07-20T20:17:55.356Z,8.13
2017-07-20T20:20:22.739Z,8.70
2017-07-20T20:22:50.138Z,12.20
2017-07-20T20:25:17.534Z,16.53
2017-07-20T20:27:44.934Z,15.97
2017-07-20T20:30:12.348Z,15.77
2017-07-20T20:32:39.767Z,12.57
2017-07-20T20:35:07.151Z,10.50
2017-07-20T20:37:34.542Z,14.00
2017-07-20T20:40:01.940Z,8.70
2017-07-20T20:42:29.335Z,8.73
2017-07-20T20:44:56.746Z,8.83
2017-07-20T20:47:24.127Z,15.20
2017-07-20T20:49:51.531Z,8.27
2017-07-20T20:52:18.935Z,12.00
2017-07-20T20:54:46.338Z,8.73
2017-07-20T20:57:13.734Z,10.77
2017-07-20T20:59:41.135Z,5.70
2017-07-20T21:02:08.522Z,13.23
2017-07-20T21:04:35.927Z,11.73
2017-07-20T21:07:03.722Z,7.47
2017-07-20T21:09:31.115Z,8.00
2017-07-20T21:11:58.507Z,8.20
2017-07-20T21:14:25.899Z,13.90
2017-07-20T21:16:53.295Z,9.50
2017-07-20T21:19:20.678Z,6.60
2017-07-20T21:21:48.077Z,9.37
2017-07-20T21:24:15.467Z,14.50
2017-07-20T21:26:42.883Z,9.23
2017-07-20T21:29:10.251Z,9.67
2017-07-20T21:31:37.922Z,8.27
2017-07-20T21:34:05.301Z,9.13
2017-07-20T21:36:32.690Z,7.50
2017-07-20T21:39:00.075Z,8.90
2017-07-20T21:41:27.467Z,8.97
2017-07-20T21:43:54.851Z,8.70
2017-07-20T21:46:22.274Z,10.40
2017-07-20T21:48:49.671Z,12.30
2017-07-20T21:51:17.069Z,13.07
2017-07-20T21:53:44.468Z,9.50
2017-07-20T21:56:11.859Z,9.37
2017-07-20T21:58:39.251Z,9.07
2017-07-20T22:01:06.647Z,10.80
2017-07-20T22:03:34.311Z,11.77
2017-07-20T22:06:01.699Z,7.80
2017-07-20T22:08:29.093Z,9.77
2017-07-20T22:10:56.482Z,8.30
2017-07-20T22:13:23.875Z,8.13
2017-07-20T22:15:51.262Z,7.80
2017-07-20T22:18:18.674Z,10.10
2017-07-20T22:20:46.056Z,7.27
2017-07-20T22:23:13.445Z,8.40
2017-07-20T22:25:40.844Z,12.07
2017-07-20T22:28:08.235Z,14.00
2017-07-20T22:30:36.096Z,13.40
2017-07-20T22:33:03.698Z,14.07
2017-07-20T22:35:31.252Z,19.50
2017-07-20T22:37:58.647Z,22.83
2017-07-20T22:40:26.059Z,20.53
2017-07-20T22:42:53.454Z,17.53
2017-07-20T22:45:20.863Z,13.17
2017-07-20T22:47:48.254Z,15.43
2017-07-20T22:50:15.659Z,18.63
2017-07-20T22:52:43.042Z,15.10
2017-07-20T22:55:10.446Z,22.80
2017-07-20T22:57:37.850Z,18.30
2017-07-20T23:00:05.258Z,21.83
2017-07-20T23:02:32.646Z,16.20
2017-07-20T23:05:00.060Z,24.67
2017-07-20T23:07:27.478Z,18.70
2017-07-20T23:09:54.863Z,16.87
2017-07-20T23:12:22.296Z,19.80
2017-07-20T23:14:49.691Z,28.43
2017-07-20T23:17:17.098Z,20.70
2017-07-20T23:19:44.495Z,16.30
2017-07-20T23:22:11.887Z,9.33
2017-07-20T23:24:39.288Z,12.73
2017-07-20T23:27:06.684Z,11.80
2017-07-20T23:29:34.066Z,13.60
2017-07-20T23:32:01.478Z,18.77
2017-07-20T23:34:28.871Z,13.13
2017-07-20T23:36:56.262Z,17.93
2017-07-20T23:39:23.667Z,15.27
2017-07-20T23:41:51.064Z,13.10
2017-07-20T23:44:18.459Z,13.63
2017-07-20T23:46:45.858Z,11.67
2017-07-20T23:49:13.251Z,15.20
2017-07-20T23:51:40.654Z,22.93
2017-07-20T23:54:08.051Z,9.77
2017-07-20T23:56:35.450Z,12.30
2017-07-20T23:59:02.866Z,17.13
